Time;durP1;ratioP1;P1;durP2;ratioP2;P2;SDS_P1;SDS_P2;PMS_P1;PMS_P2;Temp;Humidity;BMP_temperature;BMP_pressure;BME280_temperature;BME280_humidity;BME280_pressure;Samples;Min_cycle;Max_cycle;Signal;HPM_P1;HPM_P2
2022/05/04 00:00:32;;;;;;;;;;;;;;;9.39;64.94;100698.19;85453;1340;23114;-78
2022/05/04 00:02:42;;;;;;;;;;;;;;;9.38;64.94;100700.66;85533;1338;23036;-78
2022/05/04 00:04:51;;;;;;;;;;;;;;;9.38;65.15;100698.95;85588;1336;22665;-78
2022/05/04 00:06:57;;;;;;;;;;;;;;;9.38;65.22;100701.02;85578;1339;23126;-78
2022/05/04 00:09:04;;;;;;;;;;;;;;;9.39;65.23;100705.02;85574;1339;23166;-78
2022/05/04 00:11:09;;;;;;;;;;;;;;;9.37;65.41;100706.27;85584;1336;22568;-78
2022/05/04 00:13:13;;;;;;;;;;;;;;;9.36;65.32;100709.96;85584;1336;22507;-78
2022/05/04 00:15:21;;;;;;;;;;;;;;;9.34;65.65;100710.54;85585;1336;23299;-78
2022/05/04 00:17:26;;;;;;;;;;;;;;;9.35;65.55;100714.52;85583;1338;22500;-78
2022/05/04 00:19:31;;;;;;;;;;;;;;;9.34;65.45;100711.92;85594;1338;22522;-78
2022/05/04 00:21:35;;;;;;;;;;;;;;;9.33;65.74;100717.02;85566;1341;23269;-78
2022/05/04 00:23:43;;;;;;;;;;;;;;;9.34;65.74;100714.73;85466;1338;23080;-78
2022/05/04 00:25:51;;;;;;;;;;;;;;;9.35;65.53;100720.94;85545;1338;22477;-78
2022/05/04 00:27:55;;;;;;;;;;;;;;;9.37;65.45;100725.45;85565;1339;22605;-79
2022/05/04 00:30:00;;;;;;;;;;;;;;;9.37;65.50;100723.19;85598;1338;22490;-79
2022/05/04 00:32:06;;;;;;;;;;;;;;;9.38;65.66;100728.03;85572;1336;23160;-79
2022/05/04 00:34:14;;;;;;;;;;;;;;;9.39;65.59;100728.33;85596;1336;22458;-78
2022/05/04 00:36:22;;;;;;;;;;;;;;;9.40;65.55;100731.44;85537;1340;22523;-78
2022/05/04 00:38:27;;;;;;;;;;;;;;;9.40;65.44;100732.64;85508;1338;23219;-78
2022/05/04 00:40:35;;;;;;;;;;;;;;;9.41;65.71;100734.73;84817;1339;1002890;-79
2022/05/04 00:42:42;;;;;;;;;;;;;;;9.41;65.75;100734.37;85511;1339;23181;-79
2022/05/04 00:44:49;;;;;;;;;;;;;;;9.40;65.84;100740.13;85516;1336;22995;-78
2022/05/04 00:46:54;;;;;;;;;;;;;;;9.41;65.68;100738.55;85511;1339;22539;-78
2022/05/04 00:49:01;;;;;;;;;;;;;;;9.43;65.73;100740.95;85526;1339;23132;-78
2022/05/04 00:51:07;;;;;;;;;;;;;;;9.43;65.68;100740.75;85490;1338;22492;-78
2022/05/04 00:53:16;;;;;;;;;;;;;;;9.44;65.67;100741.42;85429;1339;23112;-78
2022/05/04 00:55:21;;;;;;;;;;;;;;;9.46;65.62;100742.60;85531;1338;22491;-78
2022/05/04 00:59:46;;;;;;;;;;;;;;;9.46;65.67;100743.83;85516;1341;23207;-77
2022/05/04 01:01:54;;;;;;;;;;;;;;;9.45;65.88;100745.94;85511;1339;22535;-78
2022/05/04 01:03:59;;;;;;;;;;;;;;;9.44;65.99;100745.95;85503;1340;22449;-78
2022/05/04 01:06:03;;;;;;;;;;;;;;;9.43;66.23;100744.78;85494;1338;22561;-78
2022/05/04 01:08:08;;;;;;;;;;;;;;;9.42;66.19;100746.02;85513;1339;22492;-78
2022/05/04 01:10:14;;;;;;;;;;;;;;;9.43;66.24;100745.81;85512;1339;23142;-78
2022/05/04 01:12:23;;;;;;;;;;;;;;;9.43;66.22;100744.24;85509;1338;23017;-78
2022/05/04 01:14:31;;;;;;;;;;;;;;;9.44;66.25;100743.50;85437;1339;22483;-78
2022/05/04 01:16:37;;;;;;;;;;;;;;;9.46;66.12;100747.29;85435;1339;23342;-78
2022/05/04 01:18:45;;;;;;;;;;;;;;;9.48;66.26;100746.03;85520;1339;22467;-78
2022/05/04 01:20:52;;;;;;;;;;;;;;;9.49;66.30;100743.54;85502;1338;22806;-78
2022/05/04 01:23:00;;;;;;;;;;;;;;;9.51;66.14;100745.93;85510;1339;23246;-78
2022/05/04 01:25:06;;;;;;;;;;;;;;;9.54;66.12;100751.07;85499;1338;22551;-78
2022/05/04 01:27:12;;;;;;;;;;;;;;;9.56;65.95;100751.20;85502;1338;23204;-79
2022/05/04 01:29:16;;;;;;;;;;;;;;;9.58;65.90;100749.76;85528;1341;23268;-78
2022/05/04 01:31:21;;;;;;;;;;;;;;;9.60;65.97;100752.49;85500;1337;22546;-78
2022/05/04 01:33:26;;;;;;;;;;;;;;;9.61;65.98;100752.80;85508;1339;23304;-78
2022/05/04 01:35:30;;;;;;;;;;;;;;;9.62;66.13;100751.92;85519;1338;22488;-79
2022/05/04 01:37:35;;;;;;;;;;;;;;;9.63;65.97;100744.56;85530;1341;23097;-79
2022/05/04 01:39:39;;;;;;;;;;;;;;;9.64;65.87;100744.52;85511;1341;23008;-78
2022/05/04 01:42:06;;;;;;;;;;;;;;;9.65;65.89;100743.45;85492;1339;22480;-78
2022/05/04 01:44:10;;;;;;;;;;;;;;;9.65;65.80;100740.84;85508;1339;23131;-79
2022/05/04 01:46:15;;;;;;;;;;;;;;;9.67;65.93;100745.85;85516;1339;22438;-78
2022/05/04 01:48:20;;;;;;;;;;;;;;;9.67;65.90;100751.77;85504;1338;22498;-78
2022/05/04 01:50:24;;;;;;;;;;;;;;;9.67;65.68;100756.80;85454;1341;23157;-79
2022/05/04 01:52:29;;;;;;;;;;;;;;;9.68;65.46;100763.23;84781;1341;1002270;-79
2022/05/04 01:54:37;;;;;;;;;;;;;;;9.69;65.33;100763.17;85494;1339;22462;-79
2022/05/04 01:56:41;;;;;;;;;;;;;;;9.70;65.29;100767.52;85507;1341;22563;-79
2022/05/04 01:58:46;;;;;;;;;;;;;;;9.70;65.29;100763.52;85447;1339;22469;-78
2022/05/04 02:00:51;;;;;;;;;;;;;;;9.70;65.21;100762.11;85442;1339;22491;-78
2022/05/04 02:02:56;;;;;;;;;;;;;;;9.71;65.11;100762.45;85489;1341;22515;-78
2022/05/04 02:05:04;;;;;;;;;;;;;;;9.70;65.23;100765.06;85518;1339;22474;-78
2022/05/04 02:07:09;;;;;;;;;;;;;;;9.70;65.08;100768.91;85474;1339;23165;-78
2022/05/04 02:09:17;;;;;;;;;;;;;;;9.70;64.89;100777.11;85497;1339;23118;-79
2022/05/04 02:11:24;;;;;;;;;;;;;;;9.70;64.89;100780.92;85498;1339;22500;-79
2022/05/04 02:13:31;;;;;;;;;;;;;;;9.70;64.69;100782.86;85497;1339;23161;-79
2022/05/04 02:15:36;;;;;;;;;;;;;;;9.69;64.90;100775.37;85517;1339;23080;-79
2022/05/04 02:17:41;;;;;;;;;;;;;;;9.68;64.72;100773.67;85495;1339;23221;-79
2022/05/04 02:19:45;;;;;;;;;;;;;;;9.68;64.71;100776.14;85517;1338;22496;-79
2022/05/04 02:21:50;;;;;;;;;;;;;;;9.68;64.63;100776.84;84778;1337;1002290;-79
2022/05/04 02:23:55;;;;;;;;;;;;;;;9.66;64.68;100777.75;85509;1338;23195;-78
2022/05/04 02:26:00;;;;;;;;;;;;;;;9.66;64.53;100774.63;85406;1339;22455;-78
2022/05/04 02:28:05;;;;;;;;;;;;;;;9.65;64.54;100776.02;85462;1339;23151;-78
2022/05/04 02:30:13;;;;;;;;;;;;;;;9.65;64.49;100779.67;85502;1341;22438;-78
2022/05/04 02:32:17;;;;;;;;;;;;;;;9.64;64.48;100781.44;85430;1339;23217;-78
2022/05/04 02:34:22;;;;;;;;;;;;;;;9.64;64.44;100780.59;85488;1339;22465;-78
2022/05/04 02:38:49;;;;;;;;;;;;;;;9.62;64.41;100781.85;85470;1339;23178;-78
2022/05/04 02:40:57;;;;;;;;;;;;;;;9.62;64.59;100786.23;85488;1341;23210;-78
2022/05/04 02:43:04;;;;;;;;;;;;;;;9.61;64.59;100787.31;85475;1338;22490;-79
2022/05/04 02:45:10;;;;;;;;;;;;;;;9.59;65.04;100789.09;85433;1339;23104;-78
2022/05/04 02:47:17;;;;;;;;;;;;;;;9.56;64.79;100792.30;85485;1335;22561;-77
2022/05/04 02:49:22;;;;;;;;;;;;;;;9.55;64.81;100795.80;85295;1341;23092;-78
2022/05/04 02:51:30;;;;;;;;;;;;;;;9.55;64.91;100797.54;85476;1335;22479;-78
2022/05/04 02:53:37;;;;;;;;;;;;;;;9.54;64.86;100800.18;85494;1339;22632;-78
2022/05/04 02:55:45;;;;;;;;;;;;;;;9.53;64.78;100807.70;85476;1340;23017;-79
2022/05/04 02:57:50;;;;;;;;;;;;;;;9.52;64.87;100806.51;85474;1341;23246;-78
2022/05/04 02:59:54;;;;;;;;;;;;;;;9.51;64.93;100803.75;85494;1339;22477;-78
2022/05/04 03:04:21;;;;;;;;;;;;;;;9.50;65.13;100804.98;85486;1338;22477;-79
2022/05/04 03:06:26;;;;;;;;;;;;;;;9.50;65.00;100807.27;85446;1337;23210;-79
2022/05/04 03:08:31;;;;;;;;;;;;;;;9.49;64.98;100806.59;85495;1339;23068;-79
2022/05/04 03:13:01;;;;;;;;;;;;;;;9.47;64.89;100815.88;85475;1339;22610;-78
2022/05/04 03:15:06;;;;;;;;;;;;;;;9.46;65.06;100812.60;85482;1339;22504;-78
2022/05/04 03:17:12;;;;;;;;;;;;;;;9.46;64.89;100813.65;85488;1339;22574;-79
2022/05/04 03:19:16;;;;;;;;;;;;;;;9.44;64.74;100816.46;85418;1339;23169;-79
2022/05/04 03:21:24;;;;;;;;;;;;;;;9.44;64.96;100822.73;85499;1339;22509;-79
2022/05/04 03:23:28;;;;;;;;;;;;;;;9.42;64.83;100828.20;85496;1339;22460;-79
2022/05/04 03:25:33;;;;;;;;;;;;;;;9.41;64.91;100832.92;85493;1341;23058;-78
2022/05/04 03:27:38;;;;;;;;;;;;;;;9.39;64.82;100838.02;85482;1338;23242;-77
2022/05/04 03:29:43;;;;;;;;;;;;;;;9.39;64.90;100835.76;85481;1339;23225;-79
2022/05/04 03:31:50;;;;;;;;;;;;;;;9.39;64.83;100839.77;85410;1339;22473;-79
2022/05/04 03:33:58;;;;;;;;;;;;;;;9.38;64.90;100842.41;85482;1339;22465;-77
2022/05/04 03:36:06;;;;;;;;;;;;;;;9.37;65.06;100844.02;85476;1338;23057;-78
2022/05/04 03:38:10;;;;;;;;;;;;;;;9.36;65.01;100843.15;85498;1339;23137;-78
2022/05/04 03:40:15;;;;;;;;;;;;;;;9.36;64.87;100841.06;85433;1339;22469;-77
2022/05/04 03:42:20;;;;;;;;;;;;;;;9.36;65.18;100839.67;85466;1338;22485;-77
2022/05/04 03:44:28;;;;;;;;;;;;;;;9.36;64.69;100841.77;84777;1341;1002549;-79
2022/05/04 03:46:42;;;;;;;;;;;;;;;9.36;64.48;100841.07;85466;1339;23170;-79
2022/05/04 03:48:50;;;;;;;;;;;;;;;9.37;64.36;100843.83;85481;1339;22461;-78
2022/05/04 03:51:01;;;;;;;;;;;;;;;9.38;64.22;100844.15;85484;1338;23153;-79
2022/05/04 03:53:05;;;;;;;;;;;;;;;9.39;63.89;100851.45;85493;1339;23114;-79
2022/05/04 03:55:12;;;;;;;;;;;;;;;9.38;63.87;100855.83;85448;1339;23255;-79
2022/05/04 03:57:17;;;;;;;;;;;;;;;9.37;63.34;100855.67;85494;1341;22525;-80
2022/05/04 03:59:21;;;;;;;;;;;;;;;9.36;63.13;100859.01;85490;1339;23309;-78
2022/05/04 04:01:26;;;;;;;;;;;;;;;9.36;62.80;100857.44;85494;1339;23070;-78
2022/05/04 04:03:30;;;;;;;;;;;;;;;9.35;62.51;100859.73;85472;1339;22470;-78
2022/05/04 04:05:35;;;;;;;;;;;;;;;9.35;62.41;100859.54;85495;1338;22460;-79
2022/05/04 04:07:39;;;;;;;;;;;;;;;9.36;62.29;100861.09;85481;1341;22513;-79
2022/05/04 04:09:44;;;;;;;;;;;;;;;9.39;62.28;100866.05;85518;1340;22487;-78
2022/05/04 04:11:48;;;;;;;;;;;;;;;9.41;62.01;100867.58;85509;1339;22475;-78
2022/05/04 04:13:53;;;;;;;;;;;;;;;9.43;61.83;100872.39;85516;1341;23209;-78
2022/05/04 04:16:00;;;;;;;;;;;;;;;9.47;61.63;100877.69;85503;1339;23303;-78
2022/05/04 04:18:08;;;;;;;;;;;;;;;9.52;61.54;100873.22;85499;1341;22481;-79
2022/05/04 04:22:39;;;;;;;;;;;;;;;9.62;60.92;100876.46;85500;1340;22480;-79
2022/05/04 04:24:46;;;;;;;;;;;;;;;9.66;60.61;100879.14;85500;1339;22491;-79
2022/05/04 04:26:51;;;;;;;;;;;;;;;9.70;60.41;100883.55;85527;1339;23097;-79
2022/05/04 04:28:56;;;;;;;;;;;;;;;9.77;60.21;100881.81;85512;1340;22525;-78
2022/05/04 04:31:01;;;;;;;;;;;;;;;9.81;59.84;100888.31;85512;1338;23116;-78
2022/05/04 04:33:06;;;;;;;;;;;;;;;9.86;59.85;100889.04;85446;1339;23039;-78
2022/05/04 04:35:11;;;;;;;;;;;;;;;9.98;59.70;100889.27;85181;1342;23211;-78
2022/05/04 04:37:16;;;;;;;;;;;;;;;10.14;59.62;100886.38;85500;1341;22620;-78
2022/05/04 04:39:23;;;;;;;;;;;;;;;10.22;58.78;100888.23;85508;1337;22515;-77
2022/05/04 04:41:29;;;;;;;;;;;;;;;10.26;58.36;100886.42;85507;1339;23251;-78
2022/05/04 04:43:34;;;;;;;;;;;;;;;10.27;58.05;100887.95;85490;1339;22465;-78
2022/05/04 04:45:38;;;;;;;;;;;;;;;10.30;57.79;100895.54;85189;1342;22509;-79
2022/05/04 04:47:43;;;;;;;;;;;;;;;10.34;57.79;100898.76;85492;1338;23143;-79
2022/05/04 04:49:48;;;;;;;;;;;;;;;10.43;57.61;100905.81;85519;1339;23089;-78
2022/05/04 04:51:52;;;;;;;;;;;;;;;10.52;57.49;100911.48;85507;1339;22481;-78
2022/05/04 04:53:57;;;;;;;;;;;;;;;10.59;57.33;100909.18;85422;1339;22631;-78
2022/05/04 04:56:02;;;;;;;;;;;;;;;10.86;57.55;100902.45;85425;1342;22465;-78
2022/05/04 04:58:07;;;;;;;;;;;;;;;11.03;56.28;100899.29;85429;1342;22711;-78
2022/05/04 05:00:15;;;;;;;;;;;;;;;11.10;55.58;100906.21;85502;1338;23252;-79
2022/05/04 05:02:19;;;;;;;;;;;;;;;11.22;54.86;100906.36;85487;1339;22505;-79
2022/05/04 05:04:24;;;;;;;;;;;;;;;11.43;55.05;100912.17;83311;1339;3109863;-81
2022/05/04 05:06:32;;;;;;;;;;;;;;;12.25;56.15;100905.13;85508;1339;23168;-79
2022/05/04 05:08:37;;;;;;;;;;;;;;;13.45;55.28;100907.50;85506;1339;22505;-79
2022/05/04 05:10:41;;;;;;;;;;;;;;;14.52;52.69;100903.91;85441;1339;22471;-78
2022/05/04 05:12:51;;;;;;;;;;;;;;;15.83;50.43;100901.45;85501;1339;22480;-78
2022/05/04 05:17:22;;;;;;;;;;;;;;;18.23;44.42;100907.36;85514;1341;22546;-78
2022/05/04 05:19:27;;;;;;;;;;;;;;;19.22;41.22;100900.75;85514;1340;22493;-79
2022/05/04 05:21:38;;;;;;;;;;;;;;;19.83;39.37;100906.26;85327;1341;23205;-80
2022/05/04 05:23:43;;;;;;;;;;;;;;;19.92;37.93;100909.53;85521;1341;23199;-78
2022/05/04 05:25:50;;;;;;;;;;;;;;;19.99;37.46;100911.17;85181;1342;23045;-80
2022/05/04 05:27:55;;;;;;;;;;;;;;;20.14;36.18;100901.80;85512;1340;23631;-81
2022/05/04 05:30:03;;;;;;;;;;;;;;;20.17;36.00;100897.91;85522;1341;23202;-78
2022/05/04 05:32:09;;;;;;;;;;;;;;;20.53;35.30;100900.87;85516;1339;22656;-79
2022/05/04 05:34:17;;;;;;;;;;;;;;;20.49;34.88;100900.78;85433;1339;23153;-77
2022/05/04 05:36:25;;;;;;;;;;;;;;;20.21;34.46;100901.86;85486;1339;22565;-77
2022/05/04 05:38:31;;;;;;;;;;;;;;;19.85;34.70;100906.44;85514;1341;23174;-78
2022/05/04 05:40:40;;;;;;;;;;;;;;;19.54;34.36;100906.44;85520;1339;22485;-73
2022/05/04 05:42:45;;;;;;;;;;;;;;;19.15;34.58;100907.56;85503;1339;22430;-77
2022/05/04 05:44:50;;;;;;;;;;;;;;;18.71;34.69;100905.09;85446;1339;22481;-81
2022/05/04 05:46:55;;;;;;;;;;;;;;;18.33;35.31;100909.92;85503;1341;22618;-82
2022/05/04 05:49:01;;;;;;;;;;;;;;;17.91;35.26;100913.58;85475;1341;23124;-78
2022/05/04 05:51:09;;;;;;;;;;;;;;;17.48;35.47;100909.89;85494;1339;23109;-77
2022/05/04 05:53:14;;;;;;;;;;;;;;;17.11;35.88;100914.65;85507;1340;22700;-77
2022/05/04 05:55:19;;;;;;;;;;;;;;;17.21;35.95;100917.96;85513;1340;22477;-78
2022/05/04 05:57:23;;;;;;;;;;;;;;;17.55;36.21;100912.47;85490;1338;22526;-78
2022/05/04 05:59:28;;;;;;;;;;;;;;;17.88;36.30;100910.74;85503;1339;23277;-78
2022/05/04 06:01:36;;;;;;;;;;;;;;;18.35;35.36;100911.79;85492;1341;23042;-78
2022/05/04 06:03:41;;;;;;;;;;;;;;;18.47;35.05;100910.45;85503;1339;22479;-78
2022/05/04 06:05:49;;;;;;;;;;;;;;;18.67;34.72;100908.87;85427;1341;23036;-78
2022/05/04 06:07:53;;;;;;;;;;;;;;;18.90;34.84;100902.46;85495;1338;23190;-78
2022/05/04 06:09:58;;;;;;;;;;;;;;;19.34;34.55;100909.00;85505;1341;23115;-78
2022/05/04 06:12:03;;;;;;;;;;;;;;;20.19;33.48;100908.01;85476;1339;22453;-78
2022/05/04 06:14:07;;;;;;;;;;;;;;;20.34;32.51;100907.16;85447;1340;22465;-80
2022/05/04 06:16:13;;;;;;;;;;;;;;;20.18;32.20;100905.79;85431;1341;23703;-79
2022/05/04 06:18:17;;;;;;;;;;;;;;;19.93;32.32;100908.55;85299;1342;22474;-79
2022/05/04 06:20:26;;;;;;;;;;;;;;;19.74;32.58;100904.54;85478;1338;23264;-79
2022/05/04 06:22:39;;;;;;;;;;;;;;;19.51;32.56;100906.27;85482;1341;22515;-79
2022/05/04 06:24:44;;;;;;;;;;;;;;;19.28;32.67;100913.29;85485;1341;23130;-79
2022/05/04 06:26:54;;;;;;;;;;;;;;;19.04;32.90;100917.52;85492;1339;22548;-79
2022/05/04 06:29:02;;;;;;;;;;;;;;;18.87;33.37;100915.60;85458;1339;23069;-77
2022/05/04 06:35:53;;;;;;;;;;;;;;;19.16;33.13;100925.38;85298;1341;23140;-78
2022/05/04 06:37:58;;;;;;;;;;;;;;;19.17;32.61;100926.76;85483;1339;22487;-78
2022/05/04 06:40:03;;;;;;;;;;;;;;;19.52;33.12;100929.40;85302;1342;22464;-79
2022/05/04 06:42:10;;;;;;;;;;;;;;;19.72;32.14;100928.91;85471;1338;22498;-77
2022/05/04 06:44:14;;;;;;;;;;;;;;;19.69;31.83;100925.64;85492;1338;23222;-76
2022/05/04 06:46:19;;;;;;;;;;;;;;;19.73;31.42;100924.09;85471;1340;23202;-76
2022/05/04 06:48:24;;;;;;;;;;;;;;;20.14;31.53;100928.92;85417;1339;22512;-77
2022/05/04 06:50:30;;;;;;;;;;;;;;;20.57;30.79;100929.11;85490;1339;22484;-77
2022/05/04 06:52:35;;;;;;;;;;;;;;;21.00;30.51;100932.93;85468;1339;22491;-76
2022/05/04 06:54:43;;;;;;;;;;;;;;;21.71;29.45;100931.92;85492;1339;22497;-76
2022/05/04 06:56:48;;;;;;;;;;;;;;;22.14;29.16;100934.50;85471;1341;22492;-76
2022/05/04 06:58:52;;;;;;;;;;;;;;;23.09;28.13;100927.01;85509;1339;23291;-77
2022/05/04 07:00:57;;;;;;;;;;;;;;;23.65;27.18;100930.16;85490;1339;22502;-77
2022/05/04 07:03:02;;;;;;;;;;;;;;;23.75;26.22;100930.52;85482;1341;23165;-77
2022/05/04 07:05:10;;;;;;;;;;;;;;;24.03;26.32;100928.73;85517;1339;22551;-79
2022/05/04 07:07:18;;;;;;;;;;;;;;;24.83;25.59;100926.76;85501;1339;23221;-79
2022/05/04 07:09:22;;;;;;;;;;;;;;;25.36;24.53;100925.05;85444;1342;22641;-79
2022/05/04 07:11:32;;;;;;;;;;;;;;;25.61;24.13;100922.77;85496;1341;22614;-80
2022/05/04 07:13:37;;;;;;;;;;;;;;;26.40;23.37;100931.20;85483;1339;23121;-80
2022/05/04 07:15:42;;;;;;;;;;;;;;;26.72;23.03;100932.92;85500;1338;22489;-78
2022/05/04 07:17:46;;;;;;;;;;;;;;;26.58;22.69;100935.09;85478;1339;22786;-77
2022/05/04 07:19:51;;;;;;;;;;;;;;;26.25;22.22;100937.88;85464;1339;23320;-80
2022/05/04 07:21:59;;;;;;;;;;;;;;;25.71;22.68;100935.25;85492;1339;22594;-80
2022/05/04 07:24:08;;;;;;;;;;;;;;;25.52;23.03;100935.59;85495;1339;22471;-76
2022/05/04 07:26:13;;;;;;;;;;;;;;;25.37;22.88;100939.27;85485;1338;23028;-77
2022/05/04 07:28:18;;;;;;;;;;;;;;;25.55;23.41;100938.63;85480;1339;22495;-78
2022/05/04 07:30:23;;;;;;;;;;;;;;;25.76;22.83;100945.34;85488;1338;23131;-80
2022/05/04 07:32:30;;;;;;;;;;;;;;;25.75;22.86;100947.19;85485;1341;22598;-80
2022/05/04 07:34:40;;;;;;;;;;;;;;;26.22;22.50;100946.33;85506;1339;22464;-77
2022/05/04 07:36:49;;;;;;;;;;;;;;;27.03;21.81;100947.80;85480;1338;22596;-77
2022/05/04 07:38:54;;;;;;;;;;;;;;;27.61;21.34;100942.08;85189;1342;22660;-80
2022/05/04 07:43:22;;;;;;;;;;;;;;;28.36;20.00;100950.27;85474;1339;22575;-87
2022/05/04 07:45:30;;;;;;;;;;;;;;;28.54;19.98;100948.18;85282;1342;23226;-80
2022/05/04 07:47:35;;;;;;;;;;;;;;;29.07;19.77;100949.05;85434;1339;22521;-82
2022/05/04 07:49:40;;;;;;;;;;;;;;;29.50;18.82;100944.55;85497;1338;22472;-81
2022/05/04 07:51:48;;;;;;;;;;;;;;;29.82;18.56;100955.42;85405;1339;23236;-81
2022/05/04 07:53:55;;;;;;;;;;;;;;;30.17;18.20;100954.95;85505;1338;22487;-80
2022/05/04 07:56:00;;;;;;;;;;;;;;;30.00;17.65;100954.31;85435;1339;23115;-82
2022/05/04 07:58:08;;;;;;;;;;;;;;;29.83;17.89;100952.64;85489;1339;22502;-78
2022/05/04 08:05:09;;;;;;;;;;;;;;;30.41;17.64;100961.30;85490;1339;22557;-81
2022/05/04 08:07:17;;;;;;;;;;;;;;;30.08;17.34;100959.40;85495;1338;23113;-78
2022/05/04 08:09:22;;;;;;;;;;;;;;;29.63;17.68;100959.55;85279;1342;22527;-79
2022/05/04 08:11:27;;;;;;;;;;;;;;;29.58;17.84;100962.38;85292;1341;22528;-78
2022/05/04 08:13:34;;;;;;;;;;;;;;;29.67;18.31;100960.39;85527;1337;23261;-78
2022/05/04 08:15:43;;;;;;;;;;;;;;;30.30;17.62;100968.27;85499;1339;23134;-77
2022/05/04 08:17:48;;;;;;;;;;;;;;;30.48;17.17;100967.91;85500;1338;22538;-78
2022/05/04 08:19:53;;;;;;;;;;;;;;;30.07;17.21;100966.52;85293;1336;22519;-78
2022/05/04 08:22:00;;;;;;;;;;;;;;;29.96;17.63;100964.33;85506;1338;23204;-77
2022/05/04 08:24:06;;;;;;;;;;;;;;;30.12;17.59;100955.87;85512;1339;23318;-78
2022/05/04 08:26:12;;;;;;;;;;;;;;;30.13;17.68;100958.12;85493;1338;22521;-77
2022/05/04 08:28:19;;;;;;;;;;;;;;;30.16;17.70;100956.02;85429;1335;22517;-78
2022/05/04 08:30:27;;;;;;;;;;;;;;;30.13;17.88;100961.02;85495;1338;22509;-78
2022/05/04 08:32:32;;;;;;;;;;;;;;;30.19;17.46;100962.36;85496;1339;22492;-78
2022/05/04 08:34:40;;;;;;;;;;;;;;;30.22;16.86;100959.83;85510;1338;23119;-78
2022/05/04 08:36:47;;;;;;;;;;;;;;;30.02;17.32;100958.45;85425;1339;23140;-77
2022/05/04 08:38:53;;;;;;;;;;;;;;;29.68;17.14;100960.56;85488;1338;23265;-80
2022/05/04 08:40:58;;;;;;;;;;;;;;;29.79;17.53;100965.34;85442;1339;23191;-79
2022/05/04 08:43:07;;;;;;;;;;;;;;;30.05;17.12;100965.08;85504;1339;22650;-83
2022/05/04 08:45:12;;;;;;;;;;;;;;;30.24;17.25;100969.67;85293;1342;22654;-79
2022/05/04 08:47:17;;;;;;;;;;;;;;;30.48;16.90;100973.60;85466;1342;22578;-78
2022/05/04 08:49:22;;;;;;;;;;;;;;;30.61;16.59;100973.23;85508;1339;22514;-77
2022/05/04 08:51:27;;;;;;;;;;;;;;;30.52;16.73;100977.35;85438;1339;22476;-80
2022/05/04 08:53:34;;;;;;;;;;;;;;;30.48;16.48;100979.89;85317;1341;23159;-78
2022/05/04 08:55:39;;;;;;;;;;;;;;;30.38;16.68;100976.40;85296;1342;22478;-78
2022/05/04 08:57:44;;;;;;;;;;;;;;;30.21;16.98;100973.58;85302;1337;22611;-78
2022/05/04 08:59:51;;;;;;;;;;;;;;;30.23;16.69;100972.87;85303;1341;22608;-81
2022/05/04 09:01:56;;;;;;;;;;;;;;;29.93;16.57;100974.38;85212;1341;22471;-81
2022/05/04 09:04:01;;;;;;;;;;;;;;;29.40;16.92;100969.61;85363;1341;23098;-80
2022/05/04 09:06:09;;;;;;;;;;;;;;;28.71;17.69;100972.80;85440;1339;23051;-81
2022/05/04 09:08:17;;;;;;;;;;;;;;;28.57;17.91;100974.02;85495;1338;22499;-80
2022/05/04 09:10:22;;;;;;;;;;;;;;;28.83;17.70;100972.71;85492;1336;22474;-77
2022/05/04 09:12:33;;;;;;;;;;;;;;;28.96;17.86;100971.91;85484;1339;23182;-77
2022/05/04 09:14:37;;;;;;;;;;;;;;;29.12;17.43;100975.78;85494;1339;23066;-77
2022/05/04 09:16:45;;;;;;;;;;;;;;;28.98;17.40;100970.85;85482;1339;22507;-77
2022/05/04 09:18:49;;;;;;;;;;;;;;;28.74;17.41;100970.42;85505;1338;22487;-80
2022/05/04 09:20:55;;;;;;;;;;;;;;;28.35;18.16;100969.50;85496;1339;22516;-80
2022/05/04 09:23:00;;;;;;;;;;;;;;;27.85;17.75;100966.77;85502;1338;23131;-80
2022/05/04 09:25:05;;;;;;;;;;;;;;;27.12;18.80;100976.35;85500;1339;22778;-81
2022/05/04 09:27:10;;;;;;;;;;;;;;;26.59;19.51;100978.09;85496;1339;23245;-80
2022/05/04 09:29:15;;;;;;;;;;;;;;;26.25;19.76;100976.16;85482;1341;22552;-77
2022/05/04 09:31:24;;;;;;;;;;;;;;;26.03;20.32;100977.48;85500;1339;22501;-77
2022/05/04 09:33:32;;;;;;;;;;;;;;;25.91;19.89;100971.30;85487;1340;23157;-76
2022/05/04 09:35:36;;;;;;;;;;;;;;;25.61;20.46;100969.23;85479;1338;23267;-77
2022/05/04 09:45:08;;;;;;;;;;;;;;;24.59;21.19;100970.64;85391;1339;23184;-77
2022/05/04 09:47:19;;;;;;;;;;;;;;;24.36;21.11;100976.56;85419;1339;22679;-77
2022/05/04 09:49:30;;;;;;;;;;;;;;;24.12;21.46;100972.23;85488;1339;23077;-78
2022/05/04 09:51:34;;;;;;;;;;;;;;;23.83;21.99;100971.42;85272;1344;22527;-77
2022/05/04 09:53:48;;;;;;;;;;;;;;;23.65;22.03;100974.00;85483;1338;22499;-77
2022/05/04 09:55:54;;;;;;;;;;;;;;;23.55;22.78;100971.97;85382;1340;22535;-79
2022/05/04 09:57:58;;;;;;;;;;;;;;;23.62;22.50;100970.69;85490;1339;23261;-79
2022/05/04 10:00:09;;;;;;;;;;;;;;;23.57;22.20;100972.91;85477;1339;22545;-85
2022/05/04 10:02:13;;;;;;;;;;;;;;;23.30;22.02;100967.61;85504;1338;23055;-79
2022/05/04 10:04:18;;;;;;;;;;;;;;;23.13;22.40;100974.35;85484;1341;23044;-78
2022/05/04 10:06:26;;;;;;;;;;;;;;;22.85;22.34;100978.77;85457;1338;22626;-80
2022/05/04 10:08:30;;;;;;;;;;;;;;;22.63;22.40;100977.98;85411;1339;23218;-79
2022/05/04 10:10:35;;;;;;;;;;;;;;;22.49;23.46;100981.94;85496;1339;22543;-80
2022/05/04 10:12:43;;;;;;;;;;;;;;;22.47;23.08;100975.21;85476;1339;22530;-80
2022/05/04 10:14:49;;;;;;;;;;;;;;;22.37;23.88;100974.49;85484;1341;23160;-80
2022/05/04 10:16:55;;;;;;;;;;;;;;;22.47;23.67;100976.27;85483;1339;23155;-80
2022/05/04 10:19:00;;;;;;;;;;;;;;;22.50;23.37;100974.60;85485;1339;23068;-79
2022/05/04 10:21:07;;;;;;;;;;;;;;;22.45;23.76;100973.58;85496;1339;22492;-80
2022/05/04 10:23:14;;;;;;;;;;;;;;;22.38;23.99;100973.40;85488;1339;22532;-80
2022/05/04 10:25:22;;;;;;;;;;;;;;;22.35;23.65;100971.64;85513;1338;22563;-78
2022/05/04 10:27:28;;;;;;;;;;;;;;;22.42;23.59;100965.74;85496;1338;23121;-77
2022/05/04 10:32:03;;;;;;;;;;;;;;;22.41;23.11;100965.13;85496;1339;22496;-80
2022/05/04 10:34:08;;;;;;;;;;;;;;;22.31;23.16;100958.77;85492;1338;22574;-80
2022/05/04 10:36:16;;;;;;;;;;;;;;;22.21;23.68;100954.27;85493;1341;22474;-79
2022/05/04 10:38:30;;;;;;;;;;;;;;;22.10;24.27;100947.05;85492;1339;23087;-77
2022/05/04 10:40:38;;;;;;;;;;;;;;;22.13;23.81;100951.82;85500;1338;22476;-76
2022/05/04 10:42:56;;;;;;;;;;;;;;;21.90;23.72;100947.40;85492;1339;22541;-75
2022/05/04 10:45:01;;;;;;;;;;;;;;;21.60;23.78;100948.02;85277;1340;22666;-77
2022/05/04 10:47:06;;;;;;;;;;;;;;;21.38;24.07;100946.49;85386;1342;22650;-77
2022/05/04 10:49:13;;;;;;;;;;;;;;;21.27;23.99;100948.34;85510;1340;23060;-74
2022/05/04 10:51:19;;;;;;;;;;;;;;;21.18;24.23;100944.42;85503;1338;22582;-84
2022/05/04 10:53:41;;;;;;;;;;;;;;;21.06;24.54;100943.11;85518;1339;22519;-73
2022/05/04 10:55:56;;;;;;;;;;;;;;;20.93;24.34;100944.81;85514;1339;22555;-70
2022/05/04 10:58:34;;;;;;;;;;;;;;;20.86;24.73;100937.99;85477;1336;22560;-70
2022/05/04 11:01:02;;;;;;;;;;;;;;;20.83;25.14;100936.63;85480;1338;23187;-70
2022/05/04 11:03:06;;;;;;;;;;;;;;;20.82;25.18;100936.00;85484;1341;23180;-76
2022/05/04 11:05:15;;;;;;;;;;;;;;;20.65;24.92;100941.32;85485;1339;23243;-80
2022/05/04 11:07:19;;;;;;;;;;;;;;;20.48;25.12;100940.39;85485;1338;23250;-78
2022/05/04 11:09:29;;;;;;;;;;;;;;;20.36;25.28;100938.55;85485;1339;22528;-76
2022/05/04 11:11:33;;;;;;;;;;;;;;;20.35;25.27;100938.58;85493;1339;22581;-76
2022/05/04 11:13:39;;;;;;;;;;;;;;;20.37;25.33;100937.42;85495;1338;22569;-76
2022/05/04 11:15:53;;;;;;;;;;;;;;;20.36;25.56;100932.54;85482;1339;22486;-75
2022/05/04 11:18:00;;;;;;;;;;;;;;;20.46;25.87;100930.23;85474;1339;22503;-77
2022/05/04 11:20:13;;;;;;;;;;;;;;;20.52;25.82;100928.91;85502;1339;23068;-76
2022/05/04 11:22:19;;;;;;;;;;;;;;;20.44;25.54;100931.09;85502;1339;23031;-75
2022/05/04 11:24:27;;;;;;;;;;;;;;;20.41;25.59;100932.67;85490;1338;22620;-79
2022/05/04 11:26:36;;;;;;;;;;;;;;;20.49;25.43;100928.42;85471;1338;23290;-77
2022/05/04 11:28:45;;;;;;;;;;;;;;;20.60;26.12;100926.75;85500;1337;23299;-77